sensor_id;sensor_type;location;lat;lon;timestamp;P1;durP1;ratioP1;P2;durP2;ratioP2
42846;SDS011;28495;49.916;14.536;2022-09-24T00:04:45;9.60;;;5.55;;
42846;SDS011;28495;49.916;14.536;2022-09-24T00:10:05;8.57;;;6.10;;
42846;SDS011;28495;49.916;14.536;2022-09-24T00:15:27;9.38;;;6.35;;
42846;SDS011;28495;49.916;14.536;2022-09-24T00:20:47;12.43;;;6.25;;
42846;SDS011;28495;49.916;14.536;2022-09-24T00:26:11;11.40;;;6.68;;
42846;SDS011;28495;49.916;14.536;2022-09-24T00:32:08;10.73;;;6.60;;
42846;SDS011;28495;49.916;14.536;2022-09-24T00:37:29;13.45;;;6.75;;
42846;SDS011;28495;49.916;14.536;2022-09-24T00:42:51;12.05;;;7.00;;
42846;SDS011;28495;49.916;14.536;2022-09-24T00:48:14;8.38;;;6.13;;
42846;SDS011;28495;49.916;14.536;2022-09-24T00:53:36;11.25;;;6.53;;
42846;SDS011;28495;49.916;14.536;2022-09-24T00:58:57;9.02;;;6.60;;
42846;SDS011;28495;49.916;14.536;2022-09-24T01:04:21;15.18;;;7.20;;
42846;SDS011;28495;49.916;14.536;2022-09-24T01:09:43;12.63;;;7.75;;
42846;SDS011;28495;49.916;14.536;2022-09-24T01:31:49;12.65;;;8.43;;
42846;SDS011;28495;49.916;14.536;2022-09-24T01:37:17;12.50;;;7.85;;
42846;SDS011;28495;49.916;14.536;2022-09-24T01:42:42;12.18;;;8.45;;
42846;SDS011;28495;49.916;14.536;2022-09-24T01:48:05;13.40;;;7.70;;
42846;SDS011;28495;49.916;14.536;2022-09-24T01:53:39;10.13;;;6.97;;
42846;SDS011;28495;49.916;14.536;2022-09-24T02:04:37;12.57;;;7.07;;
42846;SDS011;28495;49.916;14.536;2022-09-24T02:10:02;10.57;;;6.85;;
42846;SDS011;28495;49.916;14.536;2022-09-24T02:15:26;8.85;;;5.88;;
42846;SDS011;28495;49.916;14.536;2022-09-24T02:20:52;9.00;;;6.07;;
42846;SDS011;28495;49.916;14.536;2022-09-24T02:26:13;8.20;;;6.40;;
42846;SDS011;28495;49.916;14.536;2022-09-24T02:31:36;10.88;;;7.15;;
42846;SDS011;28495;49.916;14.536;2022-09-24T02:37:10;8.50;;;6.47;;
42846;SDS011;28495;49.916;14.536;2022-09-24T02:42:33;8.05;;;6.15;;
42846;SDS011;28495;49.916;14.536;2022-09-24T02:47:56;9.70;;;6.85;;
42846;SDS011;28495;49.916;14.536;2022-09-24T02:53:17;11.25;;;6.57;;
42846;SDS011;28495;49.916;14.536;2022-09-24T02:58:40;8.95;;;6.03;;
42846;SDS011;28495;49.916;14.536;2022-09-24T03:04:02;9.57;;;6.13;;
42846;SDS011;28495;49.916;14.536;2022-09-24T03:09:24;9.15;;;6.88;;
42846;SDS011;28495;49.916;14.536;2022-09-24T03:14:45;11.07;;;6.38;;
42846;SDS011;28495;49.916;14.536;2022-09-24T03:20:05;7.68;;;5.90;;
42846;SDS011;28495;49.916;14.536;2022-09-24T03:25:27;10.60;;;6.55;;
42846;SDS011;28495;49.916;14.536;2022-09-24T03:30:48;10.30;;;7.25;;
42846;SDS011;28495;49.916;14.536;2022-09-24T03:36:22;8.93;;;6.55;;
42846;SDS011;28495;49.916;14.536;2022-09-24T03:41:45;9.70;;;7.05;;
42846;SDS011;28495;49.916;14.536;2022-09-24T03:47:07;10.15;;;6.40;;
42846;SDS011;28495;49.916;14.536;2022-09-24T03:52:28;9.18;;;7.05;;
42846;SDS011;28495;49.916;14.536;2022-09-24T03:57:49;9.38;;;6.55;;
42846;SDS011;28495;49.916;14.536;2022-09-24T04:03:11;9.00;;;6.22;;
42846;SDS011;28495;49.916;14.536;2022-09-24T04:08:34;9.52;;;6.78;;
42846;SDS011;28495;49.916;14.536;2022-09-24T04:13:55;10.80;;;6.70;;
42846;SDS011;28495;49.916;14.536;2022-09-24T04:19:16;10.05;;;6.82;;
42846;SDS011;28495;49.916;14.536;2022-09-24T04:24:38;10.35;;;6.60;;
42846;SDS011;28495;49.916;14.536;2022-09-24T04:29:59;9.70;;;6.25;;
42846;SDS011;28495;49.916;14.536;2022-09-24T04:35:21;8.85;;;6.25;;
42846;SDS011;28495;49.916;14.536;2022-09-24T04:40:43;9.15;;;6.22;;
42846;SDS011;28495;49.916;14.536;2022-09-24T04:46:05;8.80;;;5.93;;
42846;SDS011;28495;49.916;14.536;2022-09-24T04:51:26;7.07;;;5.78;;
42846;SDS011;28495;49.916;14.536;2022-09-24T04:56:46;10.75;;;6.03;;
42846;SDS011;28495;49.916;14.536;2022-09-24T05:02:09;13.30;;;7.63;;
42846;SDS011;28495;49.916;14.536;2022-09-24T05:07:30;7.93;;;6.07;;
42846;SDS011;28495;49.916;14.536;2022-09-24T05:12:51;7.18;;;4.90;;
42846;SDS011;28495;49.916;14.536;2022-09-24T05:18:12;7.50;;;5.50;;
42846;SDS011;28495;49.916;14.536;2022-09-24T05:23:32;11.00;;;5.53;;
42846;SDS011;28495;49.916;14.536;2022-09-24T05:28:53;7.78;;;5.85;;
42846;SDS011;28495;49.916;14.536;2022-09-24T05:34:14;8.43;;;6.35;;
42846;SDS011;28495;49.916;14.536;2022-09-24T05:39:35;10.82;;;6.03;;
42846;SDS011;28495;49.916;14.536;2022-09-24T05:44:56;11.27;;;6.78;;
42846;SDS011;28495;49.916;14.536;2022-09-24T05:50:16;8.43;;;6.43;;
42846;SDS011;28495;49.916;14.536;2022-09-24T05:55:37;11.73;;;4.50;;
42846;SDS011;28495;49.916;14.536;2022-09-24T06:01:00;9.48;;;7.20;;
42846;SDS011;28495;49.916;14.536;2022-09-24T06:06:21;9.93;;;6.95;;
42846;SDS011;28495;49.916;14.536;2022-09-24T06:11:43;11.32;;;6.20;;
42846;SDS011;28495;49.916;14.536;2022-09-24T06:17:04;4.88;;;3.22;;
42846;SDS011;28495;49.916;14.536;2022-09-24T06:22:24;5.25;;;3.95;;
42846;SDS011;28495;49.916;14.536;2022-09-24T06:27:54;5.80;;;3.90;;
42846;SDS011;28495;49.916;14.536;2022-09-24T06:33:23;9.55;;;4.80;;
42846;SDS011;28495;49.916;14.536;2022-09-24T06:38:50;6.63;;;3.72;;
42846;SDS011;28495;49.916;14.536;2022-09-24T06:44:12;7.38;;;4.32;;
42846;SDS011;28495;49.916;14.536;2022-09-24T06:49:33;6.50;;;4.18;;
42846;SDS011;28495;49.916;14.536;2022-09-24T06:54:54;5.75;;;4.25;;
42846;SDS011;28495;49.916;14.536;2022-09-24T07:00:15;5.88;;;4.60;;
42846;SDS011;28495;49.916;14.536;2022-09-24T07:05:37;5.03;;;4.05;;
42846;SDS011;28495;49.916;14.536;2022-09-24T07:11:03;6.32;;;4.25;;
42846;SDS011;28495;49.916;14.536;2022-09-24T07:16:24;5.20;;;4.18;;
42846;SDS011;28495;49.916;14.536;2022-09-24T07:21:44;5.15;;;3.90;;
42846;SDS011;28495;49.916;14.536;2022-09-24T07:27:06;5.45;;;4.03;;
42846;SDS011;28495;49.916;14.536;2022-09-24T07:32:28;4.15;;;3.42;;
42846;SDS011;28495;49.916;14.536;2022-09-24T07:37:56;4.15;;;3.13;;
42846;SDS011;28495;49.916;14.536;2022-09-24T07:43:20;5.03;;;3.67;;
42846;SDS011;28495;49.916;14.536;2022-09-24T07:48:41;4.40;;;3.00;;
42846;SDS011;28495;49.916;14.536;2022-09-24T07:54:02;6.05;;;3.95;;
42846;SDS011;28495;49.916;14.536;2022-09-24T07:59:24;4.68;;;3.58;;
42846;SDS011;28495;49.916;14.536;2022-09-24T08:04:45;10.70;;;5.60;;
42846;SDS011;28495;49.916;14.536;2022-09-24T08:10:06;4.10;;;3.50;;
42846;SDS011;28495;49.916;14.536;2022-09-24T08:15:27;3.92;;;3.03;;
42846;SDS011;28495;49.916;14.536;2022-09-24T08:20:48;4.90;;;3.42;;
42846;SDS011;28495;49.916;14.536;2022-09-24T08:26:09;4.43;;;3.53;;
42846;SDS011;28495;49.916;14.536;2022-09-24T08:31:31;6.93;;;3.58;;
42846;SDS011;28495;49.916;14.536;2022-09-24T08:36:54;4.15;;;3.40;;
42846;SDS011;28495;49.916;14.536;2022-09-24T08:48:22;4.45;;;3.65;;
42846;SDS011;28495;49.916;14.536;2022-09-24T08:53:57;5.53;;;3.90;;
42846;SDS011;28495;49.916;14.536;2022-09-24T08:59:28;6.22;;;4.15;;
42846;SDS011;28495;49.916;14.536;2022-09-24T09:10:50;5.18;;;3.90;;
42846;SDS011;28495;49.916;14.536;2022-09-24T09:22:13;6.85;;;4.75;;
42846;SDS011;28495;49.916;14.536;2022-09-24T09:27:36;4.95;;;3.97;;
42846;SDS011;28495;49.916;14.536;2022-09-24T09:33:08;7.45;;;3.90;;
42846;SDS011;28495;49.916;14.536;2022-09-24T09:44:25;7.75;;;4.40;;
42846;SDS011;28495;49.916;14.536;2022-09-24T09:49:48;6.10;;;4.13;;
42846;SDS011;28495;49.916;14.536;2022-09-24T09:55:19;5.63;;;3.50;;
42846;SDS011;28495;49.916;14.536;2022-09-24T10:00:46;6.15;;;3.08;;
42846;SDS011;28495;49.916;14.536;2022-09-24T10:06:12;3.33;;;2.70;;
42846;SDS011;28495;49.916;14.536;2022-09-24T10:11:42;5.25;;;2.95;;
42846;SDS011;28495;49.916;14.536;2022-09-24T10:17:03;4.85;;;2.53;;
42846;SDS011;28495;49.916;14.536;2022-09-24T10:22:25;3.17;;;2.70;;
42846;SDS011;28495;49.916;14.536;2022-09-24T10:27:48;3.05;;;2.40;;
42846;SDS011;28495;49.916;14.536;2022-09-24T10:33:11;2.58;;;2.15;;
42846;SDS011;28495;49.916;14.536;2022-09-24T10:38:32;2.80;;;2.40;;
42846;SDS011;28495;49.916;14.536;2022-09-24T10:43:54;3.15;;;2.80;;
42846;SDS011;28495;49.916;14.536;2022-09-24T10:54:50;3.58;;;2.70;;
42846;SDS011;28495;49.916;14.536;2022-09-24T11:01:07;3.67;;;2.47;;
42846;SDS011;28495;49.916;14.536;2022-09-24T11:12:15;3.42;;;2.70;;
42846;SDS011;28495;49.916;14.536;2022-09-24T11:17:46;3.13;;;2.35;;
42846;SDS011;28495;49.916;14.536;2022-09-24T11:41:25;4.43;;;2.40;;
42846;SDS011;28495;49.916;14.536;2022-09-24T11:47:22;2.38;;;2.10;;
42846;SDS011;28495;49.916;14.536;2022-09-24T11:52:37;2.70;;;2.05;;
42846;SDS011;28495;49.916;14.536;2022-09-24T11:58:03;2.80;;;2.55;;
42846;SDS011;28495;49.916;14.536;2022-09-24T12:09:06;4.03;;;2.25;;
42846;SDS011;28495;49.916;14.536;2022-09-24T12:15:00;3.38;;;2.53;;
42846;SDS011;28495;49.916;14.536;2022-09-24T12:20:26;2.50;;;2.10;;
42846;SDS011;28495;49.916;14.536;2022-09-24T12:25:49;3.22;;;2.30;;
42846;SDS011;28495;49.916;14.536;2022-09-24T12:31:26;2.10;;;1.90;;
42846;SDS011;28495;49.916;14.536;2022-09-24T12:37:14;2.72;;;2.30;;
42846;SDS011;28495;49.916;14.536;2022-09-24T12:42:39;3.10;;;2.00;;
42846;SDS011;28495;49.916;14.536;2022-09-24T12:48:10;3.37;;;2.53;;
42846;SDS011;28495;49.916;14.536;2022-09-24T12:53:36;2.97;;;2.30;;
42846;SDS011;28495;49.916;14.536;2022-09-24T12:58:59;2.15;;;1.88;;
42846;SDS011;28495;49.916;14.536;2022-09-24T13:09:41;3.75;;;2.20;;
42846;SDS011;28495;49.916;14.536;2022-09-24T13:15:04;2.17;;;1.92;;
42846;SDS011;28495;49.916;14.536;2022-09-24T13:20:27;6.55;;;2.30;;
42846;SDS011;28495;49.916;14.536;2022-09-24T13:25:56;3.15;;;2.40;;
42846;SDS011;28495;49.916;14.536;2022-09-24T13:36:59;2.58;;;2.00;;
42846;SDS011;28495;49.916;14.536;2022-09-24T13:42:34;2.50;;;2.13;;
42846;SDS011;28495;49.916;14.536;2022-09-24T13:48:05;2.13;;;1.65;;
42846;SDS011;28495;49.916;14.536;2022-09-24T13:59:42;5.67;;;3.73;;
42846;SDS011;28495;49.916;14.536;2022-09-24T14:05:05;5.15;;;3.15;;
42846;SDS011;28495;49.916;14.536;2022-09-24T14:10:31;2.72;;;2.00;;
42846;SDS011;28495;49.916;14.536;2022-09-24T14:15:56;3.63;;;2.20;;
42846;SDS011;28495;49.916;14.536;2022-09-24T14:27:03;2.55;;;2.15;;
42846;SDS011;28495;49.916;14.536;2022-09-24T14:32:28;3.15;;;2.33;;
42846;SDS011;28495;49.916;14.536;2022-09-24T14:37:53;3.78;;;2.15;;
42846;SDS011;28495;49.916;14.536;2022-09-24T14:54:36;3.38;;;2.40;;
42846;SDS011;28495;49.916;14.536;2022-09-24T15:00:03;4.45;;;2.28;;
42846;SDS011;28495;49.916;14.536;2022-09-24T15:06:00;2.95;;;2.40;;
42846;SDS011;28495;49.916;14.536;2022-09-24T15:11:23;2.83;;;2.30;;
42846;SDS011;28495;49.916;14.536;2022-09-24T15:16:47;3.05;;;2.60;;
42846;SDS011;28495;49.916;14.536;2022-09-24T15:22:07;3.70;;;2.40;;
42846;SDS011;28495;49.916;14.536;2022-09-24T15:27:33;3.83;;;2.30;;
42846;SDS011;28495;49.916;14.536;2022-09-24T15:32:57;2.53;;;2.33;;
42846;SDS011;28495;49.916;14.536;2022-09-24T15:38:18;2.63;;;2.03;;
42846;SDS011;28495;49.916;14.536;2022-09-24T15:43:39;7.30;;;5.10;;
42846;SDS011;28495;49.916;14.536;2022-09-24T15:49:00;4.43;;;2.80;;
42846;SDS011;28495;49.916;14.536;2022-09-24T15:54:21;4.85;;;3.28;;
42846;SDS011;28495;49.916;14.536;2022-09-24T15:59:44;3.28;;;2.60;;
42846;SDS011;28495;49.916;14.536;2022-09-24T16:05:10;5.50;;;2.75;;
42846;SDS011;28495;49.916;14.536;2022-09-24T16:10:32;3.80;;;2.47;;
42846;SDS011;28495;49.916;14.536;2022-09-24T16:15:53;4.60;;;2.85;;
42846;SDS011;28495;49.916;14.536;2022-09-24T16:21:13;4.85;;;3.10;;
42846;SDS011;28495;49.916;14.536;2022-09-24T16:26:35;3.67;;;3.30;;
42846;SDS011;28495;49.916;14.536;2022-09-24T16:31:56;4.72;;;3.42;;
42846;SDS011;28495;49.916;14.536;2022-09-24T16:37:18;4.00;;;3.45;;
42846;SDS011;28495;49.916;14.536;2022-09-24T16:42:38;4.97;;;3.38;;
42846;SDS011;28495;49.916;14.536;2022-09-24T16:47:59;5.30;;;3.63;;
42846;SDS011;28495;49.916;14.536;2022-09-24T16:53:20;7.18;;;3.78;;
42846;SDS011;28495;49.916;14.536;2022-09-24T16:58:41;6.68;;;3.45;;
42846;SDS011;28495;49.916;14.536;2022-09-24T17:04:03;5.00;;;3.55;;
42846;SDS011;28495;49.916;14.536;2022-09-24T17:09:25;5.78;;;3.17;;
42846;SDS011;28495;49.916;14.536;2022-09-24T17:15:05;5.85;;;4.10;;
42846;SDS011;28495;49.916;14.536;2022-09-24T17:20:26;5.35;;;3.80;;
42846;SDS011;28495;49.916;14.536;2022-09-24T17:25:47;8.05;;;4.78;;
42846;SDS011;28495;49.916;14.536;2022-09-24T17:31:08;7.07;;;5.20;;
42846;SDS011;28495;49.916;14.536;2022-09-24T17:36:31;10.52;;;5.65;;
42846;SDS011;28495;49.916;14.536;2022-09-24T17:41:53;9.20;;;6.05;;
42846;SDS011;28495;49.916;14.536;2022-09-24T17:47:14;11.20;;;5.57;;
42846;SDS011;28495;49.916;14.536;2022-09-24T17:52:35;9.00;;;6.18;;
42846;SDS011;28495;49.916;14.536;2022-09-24T17:57:55;8.05;;;5.93;;
42846;SDS011;28495;49.916;14.536;2022-09-24T18:03:16;9.13;;;6.03;;
42846;SDS011;28495;49.916;14.536;2022-09-24T18:08:38;8.48;;;6.38;;
42846;SDS011;28495;49.916;14.536;2022-09-24T18:14:00;11.25;;;7.10;;
42846;SDS011;28495;49.916;14.536;2022-09-24T18:19:24;12.80;;;7.60;;
42846;SDS011;28495;49.916;14.536;2022-09-24T18:24:46;14.65;;;9.88;;
42846;SDS011;28495;49.916;14.536;2022-09-24T18:30:09;15.60;;;11.05;;
42846;SDS011;28495;49.916;14.536;2022-09-24T18:35:30;15.23;;;10.50;;
42846;SDS011;28495;49.916;14.536;2022-09-24T18:40:51;13.57;;;10.30;;
42846;SDS011;28495;49.916;14.536;2022-09-24T18:46:13;16.33;;;10.95;;
42846;SDS011;28495;49.916;14.536;2022-09-24T18:51:36;18.77;;;12.55;;
42846;SDS011;28495;49.916;14.536;2022-09-24T18:56:56;18.60;;;12.07;;
42846;SDS011;28495;49.916;14.536;2022-09-24T19:02:17;19.63;;;11.45;;
42846;SDS011;28495;49.916;14.536;2022-09-24T19:07:41;20.70;;;12.70;;
42846;SDS011;28495;49.916;14.536;2022-09-24T19:13:01;19.15;;;13.32;;
42846;SDS011;28495;49.916;14.536;2022-09-24T19:18:22;24.00;;;15.25;;
42846;SDS011;28495;49.916;14.536;2022-09-24T19:23:44;23.45;;;15.07;;
42846;SDS011;28495;49.916;14.536;2022-09-24T19:29:07;28.95;;;18.58;;
42846;SDS011;28495;49.916;14.536;2022-09-24T19:34:28;31.95;;;19.35;;
42846;SDS011;28495;49.916;14.536;2022-09-24T19:39:49;27.17;;;17.52;;
42846;SDS011;28495;49.916;14.536;2022-09-24T19:45:10;33.00;;;18.70;;
42846;SDS011;28495;49.916;14.536;2022-09-24T19:50:31;25.17;;;15.38;;
42846;SDS011;28495;49.916;14.536;2022-09-24T19:55:54;19.25;;;13.32;;
42846;SDS011;28495;49.916;14.536;2022-09-24T20:01:15;21.20;;;13.73;;
42846;SDS011;28495;49.916;14.536;2022-09-24T20:06:37;19.77;;;13.23;;
42846;SDS011;28495;49.916;14.536;2022-09-24T20:12:00;20.48;;;14.10;;
42846;SDS011;28495;49.916;14.536;2022-09-24T20:17:21;19.67;;;12.25;;
42846;SDS011;28495;49.916;14.536;2022-09-24T20:22:42;21.67;;;14.15;;
42846;SDS011;28495;49.916;14.536;2022-09-24T20:28:03;20.60;;;14.00;;
42846;SDS011;28495;49.916;14.536;2022-09-24T20:33:24;20.10;;;12.95;;
42846;SDS011;28495;49.916;14.536;2022-09-24T20:38:46;18.20;;;12.63;;
42846;SDS011;28495;49.916;14.536;2022-09-24T20:44:08;18.92;;;12.63;;
42846;SDS011;28495;49.916;14.536;2022-09-24T20:49:29;21.60;;;13.35;;
42846;SDS011;28495;49.916;14.536;2022-09-24T20:54:50;21.00;;;12.82;;
42846;SDS011;28495;49.916;14.536;2022-09-24T21:00:11;19.73;;;12.43;;
42846;SDS011;28495;49.916;14.536;2022-09-24T21:05:33;21.85;;;13.57;;
42846;SDS011;28495;49.916;14.536;2022-09-24T21:11:02;25.70;;;15.68;;
42846;SDS011;28495;49.916;14.536;2022-09-24T21:16:31;19.33;;;12.68;;
42846;SDS011;28495;49.916;14.536;2022-09-24T21:21:53;22.00;;;13.48;;
42846;SDS011;28495;49.916;14.536;2022-09-24T21:27:15;19.48;;;12.10;;
42846;SDS011;28495;49.916;14.536;2022-09-24T21:32:38;21.70;;;13.13;;
42846;SDS011;28495;49.916;14.536;2022-09-24T21:38:00;19.83;;;11.48;;
42846;SDS011;28495;49.916;14.536;2022-09-24T21:43:21;15.07;;;10.10;;
42846;SDS011;28495;49.916;14.536;2022-09-24T21:48:47;14.85;;;10.65;;
42846;SDS011;28495;49.916;14.536;2022-09-24T21:54:11;14.02;;;9.82;;
42846;SDS011;28495;49.916;14.536;2022-09-24T21:59:33;16.73;;;10.27;;
42846;SDS011;28495;49.916;14.536;2022-09-24T22:05:13;16.43;;;9.60;;
42846;SDS011;28495;49.916;14.536;2022-09-24T22:10:39;16.02;;;10.07;;
42846;SDS011;28495;49.916;14.536;2022-09-24T22:16:07;16.75;;;10.57;;
42846;SDS011;28495;49.916;14.536;2022-09-24T22:21:30;18.33;;;10.52;;
42846;SDS011;28495;49.916;14.536;2022-09-24T22:26:51;15.00;;;10.13;;
42846;SDS011;28495;49.916;14.536;2022-09-24T22:32:14;17.58;;;10.60;;
42846;SDS011;28495;49.916;14.536;2022-09-24T22:37:37;19.58;;;11.25;;
42846;SDS011;28495;49.916;14.536;2022-09-24T22:42:58;17.50;;;11.60;;
42846;SDS011;28495;49.916;14.536;2022-09-24T22:48:19;21.05;;;12.55;;
42846;SDS011;28495;49.916;14.536;2022-09-24T22:53:41;15.88;;;10.82;;
42846;SDS011;28495;49.916;14.536;2022-09-24T22:59:02;19.95;;;12.27;;
42846;SDS011;28495;49.916;14.536;2022-09-24T23:04:26;17.85;;;11.65;;
42846;SDS011;28495;49.916;14.536;2022-09-24T23:09:47;16.98;;;11.07;;
42846;SDS011;28495;49.916;14.536;2022-09-24T23:15:08;17.17;;;12.32;;
42846;SDS011;28495;49.916;14.536;2022-09-24T23:20:29;17.27;;;11.88;;
42846;SDS011;28495;49.916;14.536;2022-09-24T23:25:50;22.05;;;13.75;;
42846;SDS011;28495;49.916;14.536;2022-09-24T23:31:11;17.15;;;13.07;;
42846;SDS011;28495;49.916;14.536;2022-09-24T23:36:34;19.55;;;12.75;;
42846;SDS011;28495;49.916;14.536;2022-09-24T23:41:55;18.00;;;12.68;;
42846;SDS011;28495;49.916;14.536;2022-09-24T23:47:16;15.25;;;11.07;;
42846;SDS011;28495;49.916;14.536;2022-09-24T23:52:37;19.20;;;12.32;;
42846;SDS011;28495;49.916;14.536;2022-09-24T23:57:58;20.95;;;13.63;;
